Kinmount, Canada
Current Conditions -  °F | °C
As of 11:00 PM on Friday 24 Oct 2014 (Local Time) from CYQA Reporting Station
Few Clouds Few Clouds  
Wind Chill:   Ceiling: Unl
Heat Index:   Visibility: 9mi
Dew Point:   Wind: 2mph
Humidity: 100%   Direction: 180°S
Pressure: 29.89"   Gusts: NA
Location:  44.78°N, 78.65°W
Report Text: CYQA 250300Z AUTO 18002KT 9SM FEW039 03/03 A2989 RMK SLP129
Loading
Personal Weather Stations






























Interactive Weather Map
Tropical Storm Tracking
New forecast layout! Learn more

10-Day Weather Forecast

Advertisements
Track Severe Weather on mobile